Time;durP1;ratioP1;P1;durP2;ratioP2;P2;SDS_P1;SDS_P2;PMS_P1;PMS_P2;Temp;Humidity;BMP_temperature;BMP_pressure;BME280_temperature;BME280_humidity;BME280_pressure;Samples;Min_cycle;Max_cycle;Signal;HPM_P1;HPM_P2
2024/01/17 00:00:22;;;;;;;0.28;0.28;;;-0.50;99.90;;;;;;5098416;28;20402;-72
2024/01/17 00:02:48;;;;;;;0.77;0.77;;;-0.50;99.90;;;;;;5089923;27;20031;-71
2024/01/17 00:05:15;;;;;;;2.88;0.60;;;-0.50;99.90;;;;;;5099274;27;20054;-70
2024/01/17 00:07:40;;;;;;;0.47;0.47;;;-0.50;99.90;;;;;;5086253;28;20069;-72
2024/01/17 00:10:07;;;;;;;0.28;0.28;;;-0.60;99.90;;;;;;5090814;28;20074;-70
2024/01/17 00:12:33;;;;;;;0.90;0.43;;;-0.60;99.90;;;;;;5093533;27;20471;-72
2024/01/17 00:14:58;;;;;;;0.28;0.28;;;-0.60;99.90;;;;;;5096215;28;20112;-70
2024/01/17 00:17:24;;;;;;;0.30;0.30;;;-0.60;99.90;;;;;;5096703;27;20429;-71
2024/01/17 00:19:50;;;;;;;0.82;0.80;;;-0.60;99.90;;;;;;5078769;28;20071;-70
2024/01/17 00:22:16;;;;;;;0.52;0.43;;;-0.60;99.90;;;;;;5091383;28;20031;-70
2024/01/17 00:24:42;;;;;;;0.10;0.10;;;-0.60;99.90;;;;;;5096716;28;20070;-70
2024/01/17 00:27:08;;;;;;;0.98;0.60;;;-0.60;99.90;;;;;;5091954;28;20104;-70
2024/01/17 00:29:34;;;;;;;0.30;0.30;;;-0.60;99.90;;;;;;5095587;28;20049;-71
2024/01/17 00:32:00;;;;;;;0.20;0.20;;;-0.60;99.90;;;;;;5094529;28;20059;-70
2024/01/17 00:34:26;;;;;;;0.35;0.35;;;-0.60;99.90;;;;;;5090914;28;20473;-70
2024/01/17 00:36:51;;;;;;;0.13;0.13;;;-0.50;99.90;;;;;;5094382;28;20039;-69
2024/01/17 00:39:18;;;;;;;0.25;0.25;;;-0.60;99.90;;;;;;5096874;28;20126;-69
2024/01/17 00:41:45;;;;;;;0.45;0.35;;;-0.60;99.90;;;;;;5088191;28;20040;-69
2024/01/17 00:44:14;;;;;;;1.45;0.47;;;-0.60;99.90;;;;;;5098045;28;20039;-70
2024/01/17 00:46:40;;;;;;;2.10;0.85;;;-0.60;99.90;;;;;;5093856;28;20050;-70
2024/01/17 00:49:06;;;;;;;0.43;0.43;;;-0.70;99.90;;;;;;5094471;28;20295;-70
2024/01/17 00:51:32;;;;;;;0.10;0.10;;;-0.70;99.90;;;;;;5103323;28;20035;-69
2024/01/17 00:53:57;;;;;;;0.75;0.40;;;-0.70;99.90;;;;;;5098942;28;20039;-69
2024/01/17 00:56:23;;;;;;;0.68;0.60;;;-0.70;99.90;;;;;;5091843;28;20105;-69
2024/01/17 00:58:49;;;;;;;0.85;0.85;;;-0.70;99.90;;;;;;5099899;28;20031;-70
2024/01/17 01:01:14;;;;;;;0.30;0.30;;;-0.70;99.90;;;;;;5095923;28;20157;-69
2024/01/17 01:03:40;;;;;;;0.50;0.50;;;-0.70;99.90;;;;;;5093375;28;20042;-69
2024/01/17 01:06:05;;;;;;;0.75;0.60;;;-0.70;99.90;;;;;;5098334;28;20109;-69
2024/01/17 01:08:31;;;;;;;0.20;0.20;;;-0.80;99.90;;;;;;5092060;28;20067;-70
2024/01/17 01:10:56;;;;;;;0.82;0.82;;;-0.80;99.90;;;;;;5090651;28;20043;-69
2024/01/17 01:13:23;;;;;;;0.73;0.70;;;-0.80;99.90;;;;;;5100546;28;20036;-69
2024/01/17 01:15:48;;;;;;;0.98;0.95;;;-0.80;99.90;;;;;;5100431;28;20062;-70
2024/01/17 01:18:14;;;;;;;0.20;0.20;;;-0.80;99.90;;;;;;5097710;28;20035;-69
2024/01/17 01:20:41;;;;;;;0.55;0.55;;;-0.80;99.90;;;;;;5097350;28;20177;-69
2024/01/17 01:23:06;;;;;;;0.20;0.20;;;-0.80;99.90;;;;;;5096021;28;20493;-69
2024/01/17 01:25:32;;;;;;;0.73;0.25;;;-0.80;99.90;;;;;;5095403;28;20159;-69
2024/01/17 01:27:57;;;;;;;0.60;0.60;;;-0.80;99.90;;;;;;5086762;28;20036;-69
2024/01/17 01:30:23;;;;;;;0.68;0.68;;;-0.70;99.90;;;;;;5100156;28;20037;-68
2024/01/17 01:32:49;;;;;;;0.25;0.25;;;-0.70;99.90;;;;;;5091515;28;20035;-69
2024/01/17 01:35:14;;;;;;;0.10;0.10;;;-0.80;99.90;;;;;;5093080;28;20055;-69
2024/01/17 01:37:40;;;;;;;0.30;0.30;;;-0.70;99.90;;;;;;5095501;27;20043;-70
2024/01/17 01:40:09;;;;;;;0.10;0.10;;;-0.70;99.90;;;;;;5100513;27;20043;-68
2024/01/17 01:42:35;;;;;;;0.77;0.55;;;-0.70;99.90;;;;;;5096881;27;20038;-68
2024/01/17 01:45:01;;;;;;;0.20;0.20;;;-0.70;99.90;;;;;;5096507;28;20796;-70
2024/01/17 01:47:27;;;;;;;0.30;0.30;;;-0.70;99.90;;;;;;5089811;27;20506;-69
2024/01/17 01:49:52;;;;;;;0.35;0.35;;;-0.70;99.90;;;;;;5097891;28;20115;-68
2024/01/17 01:52:20;;;;;;;0.13;0.13;;;-0.70;99.90;;;;;;5092111;28;20161;-68
2024/01/17 01:54:47;;;;;;;1.13;1.02;;;-0.70;99.90;;;;;;5100179;27;20313;-68
2024/01/17 01:57:14;;;;;;;0.50;0.50;;;-0.70;99.90;;;;;;5084366;27;20028;-69
2024/01/17 01:59:40;;;;;;;0.50;0.50;;;-0.80;99.90;;;;;;5099409;27;20054;-68
2024/01/17 02:02:06;;;;;;;0.65;0.52;;;-0.80;99.90;;;;;;5099195;28;20486;-68
2024/01/17 02:04:34;;;;;;;0.38;0.38;;;-0.80;99.90;;;;;;5098910;27;20051;-68
2024/01/17 02:07:01;;;;;;;0.15;0.13;;;-0.80;99.90;;;;;;5094162;27;20591;-68
2024/01/17 02:09:28;;;;;;;1.48;1.38;;;-0.80;99.90;;;;;;5099536;28;20035;-69
2024/01/17 02:11:55;;;;;;;0.17;0.17;;;-0.80;99.90;;;;;;5096216;27;20032;-68
2024/01/17 02:14:20;;;;;;;0.30;0.30;;;-0.80;99.90;;;;;;5091993;28;20126;-69
2024/01/17 02:16:46;;;;;;;0.65;0.45;;;-0.80;99.90;;;;;;5106913;27;20131;-68
2024/01/17 02:19:16;;;;;;;1.20;0.60;;;-0.80;99.90;;;;;;5080469;27;20043;-69
2024/01/17 02:21:42;;;;;;;1.77;1.30;;;-0.80;99.90;;;;;;5084642;28;20098;-69
2024/01/17 02:24:18;;;;;;;0.82;0.82;;;-0.80;99.90;;;;;;5080482;28;20063;-68
2024/01/17 02:26:44;;;;;;;0.20;0.20;;;-0.80;99.90;;;;;;5100231;27;20136;-67
2024/01/17 02:29:11;;;;;;;0.50;0.32;;;-0.80;99.90;;;;;;5114053;27;20108;-67
2024/01/17 02:31:36;;;;;;;2.08;0.47;;;-0.90;99.90;;;;;;5097163;27;20035;-68
2024/01/17 02:34:03;;;;;;;0.35;0.20;;;-0.80;99.90;;;;;;5101745;27;20051;-67
2024/01/17 02:36:32;;;;;;;0.43;0.40;;;-0.90;99.90;;;;;;5120334;27;20513;-67
2024/01/17 02:38:58;;;;;;;2.05;0.75;;;-0.90;99.90;;;;;;5100314;27;20047;-68
2024/01/17 02:41:23;;;;;;;0.82;0.82;;;-0.90;99.90;;;;;;5103084;27;20062;-68
2024/01/17 02:43:49;;;;;;;0.43;0.43;;;-0.90;99.90;;;;;;5105057;27;20097;-69
2024/01/17 02:46:14;;;;;;;0.63;0.63;;;-0.80;99.90;;;;;;5097062;27;20042;-68
2024/01/17 02:48:40;;;;;;;0.88;0.82;;;-0.90;99.90;;;;;;5084378;27;20040;-67
2024/01/17 02:51:06;;;;;;;1.02;0.50;;;-0.80;99.90;;;;;;5102741;28;20031;-67
2024/01/17 02:53:31;;;;;;;0.25;0.25;;;-0.80;99.90;;;;;;5103162;27;20027;-68
2024/01/17 02:55:57;;;;;;;0.20;0.20;;;-0.80;99.90;;;;;;5097439;27;20068;-68
2024/01/17 02:58:22;;;;;;;0.30;0.30;;;-0.80;99.90;;;;;;5095748;28;20487;-67
2024/01/17 03:00:48;;;;;;;0.20;0.20;;;-0.80;99.90;;;;;;5103811;27;20118;-67
2024/01/17 03:03:13;;;;;;;1.00;0.70;;;-0.90;99.90;;;;;;5098925;28;20042;-67
2024/01/17 03:05:39;;;;;;;0.10;0.10;;;-0.90;99.90;;;;;;5099351;27;20130;-67
2024/01/17 03:08:06;;;;;;;0.43;0.20;;;-0.90;99.90;;;;;;5097745;27;20402;-68
2024/01/17 03:10:32;;;;;;;0.40;0.40;;;-0.90;99.90;;;;;;5099360;28;20035;-68
2024/01/17 03:12:58;;;;;;;0.20;0.20;;;-0.90;99.90;;;;;;5098700;27;20397;-67
2024/01/17 03:15:24;;;;;;;0.28;0.28;;;-0.90;99.90;;;;;;5091772;27;20122;-67
2024/01/17 03:17:52;;;;;;;1.23;0.73;;;-0.90;99.90;;;;;;5104501;27;20664;-68
2024/01/17 03:20:18;;;;;;;0.45;0.45;;;-0.90;99.90;;;;;;5090846;27;20047;-69
2024/01/17 03:22:44;;;;;;;0.10;0.10;;;-0.90;99.90;;;;;;5086715;27;20058;-68
2024/01/17 03:25:10;;;;;;;2.05;1.27;;;-0.90;99.90;;;;;;5092146;27;20519;-67
2024/01/17 03:27:36;;;;;;;0.50;0.50;;;-0.90;99.90;;;;;;5094583;28;20035;-68
2024/01/17 03:30:03;;;;;;;0.40;0.40;;;-0.90;99.90;;;;;;5092225;27;20039;-68
2024/01/17 03:32:29;;;;;;;0.45;0.45;;;-0.90;99.90;;;;;;5105449;27;20032;-67
2024/01/17 03:34:55;;;;;;;0.20;0.20;;;-0.90;99.90;;;;;;5099609;27;20474;-67
2024/01/17 03:37:22;;;;;;;0.10;0.10;;;-0.90;99.90;;;;;;5096286;27;20042;-67
2024/01/17 03:39:48;;;;;;;0.15;0.15;;;-0.90;99.90;;;;;;5101518;27;20043;-67
2024/01/17 03:42:15;;;;;;;0.38;0.32;;;-0.90;99.90;;;;;;5106350;27;20038;-67
2024/01/17 03:44:44;;;;;;;0.55;0.35;;;-0.80;99.90;;;;;;5096383;27;20070;-67
2024/01/17 03:47:11;;;;;;;0.25;0.25;;;-0.80;99.90;;;;;;5103651;27;20123;-67
2024/01/17 03:49:37;;;;;;;0.30;0.30;;;-0.80;99.90;;;;;;5097094;27;20253;-68
2024/01/17 03:52:03;;;;;;;0.40;0.40;;;-0.90;99.90;;;;;;5099277;27;20041;-68
2024/01/17 03:54:28;;;;;;;1.42;1.30;;;-0.80;99.90;;;;;;5094090;28;20028;-67
2024/01/17 03:56:54;;;;;;;0.85;0.30;;;-0.80;99.90;;;;;;5107787;27;20043;-67
2024/01/17 03:59:19;;;;;;;0.32;0.32;;;-0.80;99.90;;;;;;5093019;28;20599;-67
2024/01/17 04:01:46;;;;;;;0.82;0.63;;;-0.80;99.90;;;;;;5082719;28;20038;-67
2024/01/17 04:04:11;;;;;;;0.20;0.20;;;-0.80;99.90;;;;;;5096439;28;20028;-69
2024/01/17 04:06:37;;;;;;;1.92;0.65;;;-0.80;99.90;;;;;;5093867;27;20499;-67
2024/01/17 04:09:03;;;;;;;1.40;1.10;;;-0.80;99.90;;;;;;5082389;27;20036;-68
2024/01/17 04:11:28;;;;;;;1.10;1.10;;;-0.80;99.90;;;;;;5100900;28;20035;-67
2024/01/17 04:13:55;;;;;;;0.22;0.22;;;-0.80;99.90;;;;;;5096021;27;20035;-68
2024/01/17 04:16:21;;;;;;;0.70;0.70;;;-0.80;99.90;;;;;;5092452;27;20052;-68
2024/01/17 04:18:48;;;;;;;0.60;0.60;;;-0.80;99.90;;;;;;5097186;27;20058;-67
2024/01/17 04:21:20;;;;;;;0.30;0.30;;;-0.80;99.90;;;;;;5095451;28;20039;-67
2024/01/17 04:23:49;;;;;;;0.40;0.40;;;-0.80;99.90;;;;;;5094242;27;20500;-67
2024/01/17 04:26:23;;;;;;;1.85;1.00;;;-0.80;99.90;;;;;;5097051;27;20223;-67
2024/01/17 04:28:54;;;;;;;7.97;1.00;;;-0.80;99.90;;;;;;5099225;28;20031;-67
2024/01/17 04:31:32;;;;;;;0.63;0.63;;;-0.70;99.90;;;;;;5091929;28;20032;-67
2024/01/17 04:33:58;;;;;;;2.10;0.82;;;-0.70;99.90;;;;;;5096273;28;20037;-68
2024/01/17 04:36:27;;;;;;;0.88;0.40;;;-0.70;99.90;;;;;;5096238;28;20058;-68
2024/01/17 04:38:53;;;;;;;0.57;0.57;;;-0.80;99.90;;;;;;5090072;28;20039;-67
2024/01/17 04:41:19;;;;;;;0.73;0.73;;;-0.80;99.90;;;;;;5095789;28;20169;-67
2024/01/17 04:43:45;;;;;;;2.15;1.95;;;-0.70;99.90;;;;;;5099392;28;20513;-67
2024/01/17 04:46:16;;;;;;;0.20;0.20;;;-0.70;99.90;;;;;;5097005;28;20046;-67
2024/01/17 04:48:45;;;;;;;1.33;0.47;;;-0.70;99.90;;;;;;5093557;28;20115;-67
2024/01/17 04:51:11;;;;;;;0.43;0.43;;;-0.70;99.90;;;;;;5103978;28;20036;-67
2024/01/17 04:53:37;;;;;;;0.22;0.22;;;-0.80;99.90;;;;;;5092708;28;20404;-67
2024/01/17 04:56:05;;;;;;;0.20;0.20;;;-0.70;99.90;;;;;;5091957;28;20477;-68
2024/01/17 04:58:34;;;;;;;0.70;0.70;;;-0.70;99.90;;;;;;5102438;28;20375;-68
2024/01/17 05:01:00;;;;;;;0.35;0.35;;;-0.80;99.90;;;;;;5092578;28;20035;-67
2024/01/17 05:03:26;;;;;;;0.60;0.60;;;-0.70;99.90;;;;;;5097235;28;20031;-68
2024/01/17 05:05:51;;;;;;;1.08;0.98;;;-0.70;99.90;;;;;;5098868;28;20063;-68
2024/01/17 05:08:17;;;;;;;1.30;0.70;;;-0.70;99.90;;;;;;5094476;28;20036;-68
2024/01/17 05:10:45;;;;;;;1.08;0.55;;;-0.70;99.90;;;;;;5091346;27;20040;-67
2024/01/17 05:13:11;;;;;;;1.52;0.60;;;-0.70;99.90;;;;;;5078328;27;20043;-67
2024/01/17 05:15:38;;;;;;;1.75;0.93;;;-0.70;99.90;;;;;;5097347;27;20715;-69
2024/01/17 05:18:05;;;;;;;0.43;0.43;;;-0.80;99.90;;;;;;5100040;28;20452;-67
2024/01/17 05:20:31;;;;;;;2.72;0.95;;;-0.80;99.90;;;;;;5102032;27;20035;-67
2024/01/17 05:22:56;;;;;;;1.55;0.55;;;-0.80;99.90;;;;;;5095135;27;20134;-68
2024/01/17 05:25:23;;;;;;;2.00;1.05;;;-0.70;99.90;;;;;;5096380;27;20058;-68
2024/01/17 05:27:54;;;;;;;0.77;0.77;;;-0.80;99.90;;;;;;5101955;27;20039;-67
2024/01/17 05:30:21;;;;;;;0.73;0.73;;;-0.80;99.90;;;;;;5109127;27;20513;-67
2024/01/17 05:32:47;;;;;;;0.25;0.25;;;-0.80;99.90;;;;;;5102456;27;20035;-67
2024/01/17 05:35:16;;;;;;;0.68;0.68;;;-0.80;99.90;;;;;;5115510;27;20546;-67
2024/01/17 05:37:42;;;;;;;0.30;0.30;;;-0.80;99.90;;;;;;5100751;27;20557;-67
2024/01/17 05:40:12;;;;;;;0.45;0.45;;;-0.80;99.90;;;;;;5103126;28;20532;-68
2024/01/17 05:42:38;;;;;;;0.40;0.40;;;-0.80;99.90;;;;;;5101115;27;20043;-67
2024/01/17 05:45:05;;;;;;;0.30;0.30;;;-0.80;99.90;;;;;;5106871;27;20042;-68
2024/01/17 05:47:30;;;;;;;0.75;0.75;;;-0.80;99.90;;;;;;5096194;27;20057;-67
2024/01/17 05:49:59;;;;;;;0.20;0.20;;;-0.80;99.90;;;;;;5100220;28;20039;-67
2024/01/17 05:52:25;;;;;;;1.48;1.38;;;-0.90;99.90;;;;;;5103468;27;20031;-67
2024/01/17 05:54:51;;;;;;;0.32;0.30;;;-1.00;99.90;;;;;;5103560;27;20455;-68
2024/01/17 05:57:17;;;;;;;0.55;0.55;;;-1.00;99.90;;;;;;5106595;27;20035;-67
2024/01/17 05:59:42;;;;;;;0.38;0.38;;;-1.10;99.90;;;;;;5101088;28;20057;-67
2024/01/17 06:02:08;;;;;;;0.25;0.25;;;-1.10;99.90;;;;;;5101700;27;20078;-67
2024/01/17 06:04:34;;;;;;;0.20;0.20;;;-1.10;99.90;;;;;;5092570;28;20485;-67
2024/01/17 06:06:59;;;;;;;0.40;0.40;;;-1.20;99.90;;;;;;5102676;27;20040;-67
2024/01/17 06:09:25;;;;;;;0.80;0.80;;;-1.20;99.90;;;;;;5104857;27;20046;-66
2024/01/17 06:11:50;;;;;;;0.65;0.55;;;-1.20;99.90;;;;;;5082164;27;20035;-67
2024/01/17 06:14:16;;;;;;;0.10;0.10;;;-1.30;99.90;;;;;;5103076;28;20035;-66
2024/01/17 06:16:42;;;;;;;0.38;0.38;;;-1.30;99.90;;;;;;5080420;27;20046;-67
2024/01/17 06:19:07;;;;;;;0.95;0.40;;;-1.40;99.90;;;;;;5083556;27;20038;-67
2024/01/17 06:21:33;;;;;;;0.15;0.15;;;-1.40;99.90;;;;;;5085241;27;20118;-67
2024/01/17 06:23:58;;;;;;;0.17;0.17;;;-1.50;99.90;;;;;;5099487;28;20036;-67
2024/01/17 06:26:24;;;;;;;0.50;0.50;;;-1.50;99.90;;;;;;5096204;28;20096;-67
2024/01/17 06:28:49;;;;;;;3.15;0.77;;;-1.60;99.90;;;;;;5102347;28;20046;-67
2024/01/17 06:31:26;;;;;;;0.13;0.13;;;-1.60;99.90;;;;;;5099947;27;20038;-67
2024/01/17 06:33:52;;;;;;;0.20;0.20;;;-1.60;99.90;;;;;;5107166;27;20371;-67
2024/01/17 06:36:18;;;;;;;0.43;0.43;;;-1.70;99.90;;;;;;5099788;27;20119;-67
2024/01/17 06:38:44;;;;;;;0.20;0.20;;;-1.70;99.90;;;;;;5098893;27;20481;-67
2024/01/17 06:41:09;;;;;;;0.20;0.20;;;-1.70;99.90;;;;;;5104304;27;20032;-67
2024/01/17 06:43:35;;;;;;;0.20;0.20;;;-1.80;99.90;;;;;;5103963;27;20044;-67
2024/01/17 06:46:00;;;;;;;0.22;0.22;;;-1.90;99.90;;;;;;5103279;28;20429;-67
2024/01/17 06:48:26;;;;;;;0.10;0.10;;;-1.90;99.90;;;;;;5098954;27;20044;-67
2024/01/17 06:50:52;;;;;;;0.10;0.10;;;-1.90;99.90;;;;;;5107328;27;20036;-67
2024/01/17 06:53:21;;;;;;;0.17;0.17;;;-1.90;99.90;;;;;;5100382;27;20040;-67
2024/01/17 06:55:47;;;;;;;0.25;0.25;;;-2.00;99.90;;;;;;5119046;27;20031;-67
2024/01/17 06:58:12;;;;;;;1.45;1.35;;;-2.00;99.90;;;;;;5104667;27;20031;-67
2024/01/17 07:00:38;;;;;;;0.45;0.45;;;-2.00;99.90;;;;;;5097277;27;20538;-67
2024/01/17 07:03:04;;;;;;;0.28;0.28;;;-2.00;99.90;;;;;;5103763;27;20045;-67
2024/01/17 07:05:29;;;;;;;0.10;0.10;;;-2.10;99.90;;;;;;5102332;27;20058;-66
2024/01/17 07:07:55;;;;;;;0.65;0.65;;;-2.10;99.90;;;;;;5088426;27;20505;-67
2024/01/17 07:10:22;;;;;;;0.38;0.38;;;-2.10;99.90;;;;;;5096546;28;20046;-67
2024/01/17 07:12:49;;;;;;;0.50;0.50;;;-2.10;99.90;;;;;;5106691;27;20043;-67
2024/01/17 07:15:19;;;;;;;1.25;1.15;;;-2.10;99.90;;;;;;5093065;27;20378;-66
2024/01/17 07:17:45;;;;;;;0.13;0.13;;;-2.10;99.90;;;;;;5099254;27;20043;-67
2024/01/17 07:20:12;;;;;;;0.20;0.20;;;-2.10;99.90;;;;;;5094787;27;20389;-66
2024/01/17 07:22:41;;;;;;;1.13;0.47;;;-2.20;99.90;;;;;;5099155;27;20389;-67
2024/01/17 07:25:09;;;;;;;0.55;0.55;;;-2.20;99.90;;;;;;5085902;27;20035;-67
2024/01/17 07:27:34;;;;;;;0.45;0.45;;;-2.20;99.90;;;;;;5094927;28;20491;-67
2024/01/17 07:30:00;;;;;;;0.32;0.32;;;-2.20;99.90;;;;;;5074099;28;20052;-67
2024/01/17 07:32:25;;;;;;;0.50;0.50;;;-2.20;99.90;;;;;;5095585;27;20050;-66
2024/01/17 07:34:51;;;;;;;2.10;0.85;;;-2.30;99.90;;;;;;5100163;28;20035;-65
2024/01/17 07:37:16;;;;;;;0.30;0.30;;;-2.20;99.90;;;;;;5096184;28;20228;-66
2024/01/17 07:39:43;;;;;;;0.50;0.50;;;-2.30;99.90;;;;;;5095346;27;20046;-66
2024/01/17 07:42:09;;;;;;;0.20;0.20;;;-2.30;99.90;;;;;;5092755;27;20418;-66
2024/01/17 07:44:34;;;;;;;0.20;0.20;;;-2.30;99.90;;;;;;5096978;28;20031;-67
2024/01/17 07:47:00;;;;;;;0.10;0.10;;;-2.30;99.90;;;;;;5097931;27;20032;-67
2024/01/17 07:49:26;;;;;;;0.40;0.40;;;-2.30;99.90;;;;;;5085295;27;20064;-67
2024/01/17 07:51:52;;;;;;;0.20;0.20;;;-2.30;99.90;;;;;;5104314;27;20031;-66
2024/01/17 07:54:18;;;;;;;0.52;0.52;;;-2.30;99.90;;;;;;5100852;27;20439;-66
2024/01/17 07:56:43;;;;;;;0.75;0.75;;;-2.30;99.90;;;;;;5098286;27;20049;-66
2024/01/17 07:59:09;;;;;;;0.10;0.10;;;-2.30;99.90;;;;;;5081103;27;20489;-67
2024/01/17 08:01:35;;;;;;;0.13;0.13;;;-2.30;99.90;;;;;;5100570;28;20050;-67
2024/01/17 08:04:00;;;;;;;0.43;0.43;;;-2.30;99.90;;;;;;5093531;28;20039;-66
2024/01/17 08:06:26;;;;;;;0.28;0.28;;;-2.30;99.90;;;;;;5096259;27;20087;-67
2024/01/17 08:08:52;;;;;;;2.83;0.57;;;-2.30;99.90;;;;;;5098820;27;20051;-67
2024/01/17 08:11:19;;;;;;;0.10;0.10;;;-2.20;99.90;;;;;;5097464;28;20394;-67
2024/01/17 08:13:44;;;;;;;0.20;0.20;;;-2.30;99.90;;;;;;5087604;28;20042;-67
2024/01/17 08:16:10;;;;;;;0.20;0.20;;;-2.30;99.90;;;;;;5096919;28;20035;-68
2024/01/17 08:18:36;;;;;;;0.17;0.17;;;-2.30;99.90;;;;;;5115716;27;20054;-67
2024/01/17 08:21:02;;;;;;;0.40;0.40;;;-2.20;99.90;;;;;;5094402;28;20051;-68
2024/01/17 08:23:28;;;;;;;1.27;0.63;;;-2.20;99.90;;;;;;5100887;27;20044;-67
2024/01/17 08:25:53;;;;;;;0.73;0.73;;;-2.20;99.90;;;;;;5096112;28;20082;-67
2024/01/17 08:28:19;;;;;;;0.20;0.20;;;-2.20;99.90;;;;;;5083962;27;20047;-67
2024/01/17 08:30:45;;;;;;;0.10;0.10;;;-2.10;99.90;;;;;;5108041;28;20386;-67
2024/01/17 08:33:11;;;;;;;0.20;0.20;;;-2.10;99.90;;;;;;5097421;28;20032;-72
2024/01/17 08:35:37;;;;;;;0.15;0.15;;;-2.10;99.90;;;;;;5096955;28;20044;-68
2024/01/17 08:38:03;;;;;;;0.10;0.10;;;-2.00;99.90;;;;;;5095570;28;20517;-67
2024/01/17 08:40:29;;;;;;;0.25;0.25;;;-2.00;99.90;;;;;;5103546;28;20035;-67
2024/01/17 08:42:55;;;;;;;0.10;0.10;;;-1.90;99.90;;;;;;5094447;28;20116;-67
2024/01/17 08:45:22;;;;;;;0.22;0.22;;;-1.90;99.90;;;;;;5099379;28;20036;-67
2024/01/17 08:47:47;;;;;;;0.20;0.20;;;-1.90;99.90;;;;;;5102090;27;20040;-67
2024/01/17 08:50:13;;;;;;;0.20;0.20;;;-1.80;99.90;;;;;;5101464;27;20436;-67
2024/01/17 08:52:39;;;;;;;0.45;0.45;;;-1.80;99.90;;;;;;5104019;28;20049;-67
2024/01/17 08:55:08;;;;;;;0.10;0.10;;;-1.80;99.90;;;;;;5098466;28;20457;-67
2024/01/17 08:57:39;;;;;;;0.10;0.10;;;-1.70;99.90;;;;;;5117633;27;20035;-67
2024/01/17 09:00:06;;;;;;;0.22;0.22;;;-1.70;99.90;;;;;;5096049;27;20035;-67
2024/01/17 09:02:31;;;;;;;0.47;0.35;;;-1.60;99.90;;;;;;5093729;28;20528;-67
2024/01/17 09:04:57;;;;;;;0.50;0.50;;;-1.60;99.90;;;;;;5100118;27;20040;-67
2024/01/17 09:07:23;;;;;;;0.28;0.28;;;-1.50;99.90;;;;;;5099028;27;20039;-68
2024/01/17 09:09:49;;;;;;;2.75;0.65;;;-1.50;99.90;;;;;;5093671;28;20316;-67
2024/01/17 09:12:17;;;;;;;0.15;0.15;;;-1.40;99.90;;;;;;5092853;27;20482;-67
2024/01/17 09:14:44;;;;;;;0.17;0.17;;;-1.40;99.90;;;;;;5098489;27;20118;-68
2024/01/17 09:17:10;;;;;;;0.20;0.20;;;-1.40;99.90;;;;;;5102782;27;20490;-67
2024/01/17 09:19:35;;;;;;;1.33;0.43;;;-1.30;99.90;;;;;;5095934;28;20071;-67
2024/01/17 09:22:02;;;;;;;0.10;0.10;;;-1.30;99.90;;;;;;5101166;27;20050;-68
2024/01/17 09:24:28;;;;;;;1.08;0.40;;;-1.20;99.90;;;;;;5094771;28;20075;-67
2024/01/17 09:26:53;;;;;;;0.10;0.10;;;-1.20;99.90;;;;;;5095185;28;20082;-67
2024/01/17 09:29:20;;;;;;;0.13;0.13;;;-1.10;99.90;;;;;;5106666;27;20040;-67
2024/01/17 09:31:46;;;;;;;0.20;0.20;;;-1.10;99.90;;;;;;5089457;27;20031;-68
2024/01/17 09:34:13;;;;;;;0.88;0.88;;;-1.00;99.90;;;;;;5089644;28;20142;-67
2024/01/17 09:36:39;;;;;;;0.60;0.45;;;-1.00;99.90;;;;;;5109743;28;20051;-67
2024/01/17 09:39:08;;;;;;;0.22;0.22;;;-0.90;99.90;;;;;;5097210;27;20040;-67
2024/01/17 09:41:33;;;;;;;0.20;0.20;;;-0.90;99.90;;;;;;5101770;28;20047;-68
2024/01/17 09:44:00;;;;;;;1.00;0.30;;;-0.80;99.90;;;;;;5077239;28;20035;-68
2024/01/17 09:46:31;;;;;;;0.95;0.80;;;-0.80;99.90;;;;;;5087182;28;20039;-67
2024/01/17 09:48:57;;;;;;;0.30;0.30;;;-0.70;99.90;;;;;;5091400;27;20047;-67
2024/01/17 09:51:25;;;;;;;0.98;0.55;;;-0.70;99.90;;;;;;5096930;28;20470;-67
2024/01/17 09:53:53;;;;;;;4.13;0.73;;;-0.70;99.90;;;;;;5106208;28;20262;-67
2024/01/17 09:56:25;;;;;;;0.22;0.22;;;-0.60;99.90;;;;;;5097998;27;20464;-66
2024/01/17 09:58:51;;;;;;;0.50;0.50;;;-0.60;99.90;;;;;;5098871;28;20043;-67
2024/01/17 10:01:19;;;;;;;1.25;0.75;;;-0.60;99.90;;;;;;5110236;27;20313;-66
2024/01/17 10:03:46;;;;;;;1.08;0.93;;;-0.60;99.90;;;;;;5113239;28;20043;-67
2024/01/17 10:06:15;;;;;;;1.00;0.88;;;-0.60;99.90;;;;;;5084592;28;20382;-66
2024/01/17 10:08:45;;;;;;;0.35;0.35;;;-0.50;99.90;;;;;;5095175;28;20044;-67
2024/01/17 10:11:10;;;;;;;1.35;0.68;;;-0.50;99.90;;;;;;5095162;27;20110;-67
2024/01/17 10:13:36;;;;;;;15.27;1.13;;;-0.50;99.90;;;;;;5089444;28;20181;-67
2024/01/17 10:16:03;;;;;;;0.65;0.47;;;-0.40;99.90;;;;;;5099963;28;20512;-67
2024/01/17 10:18:30;;;;;;;0.32;0.32;;;-0.40;99.90;;;;;;5096203;28;20416;-67
2024/01/17 10:20:56;;;;;;;0.25;0.25;;;-0.40;99.90;;;;;;5092473;27;20093;-67
2024/01/17 10:23:25;;;;;;;0.40;0.28;;;-0.40;99.90;;;;;;5080510;28;20048;-68
2024/01/17 10:25:51;;;;;;;0.10;0.10;;;-0.30;99.90;;;;;;5076301;28;20044;-67
2024/01/17 10:28:17;;;;;;;1.10;0.32;;;-0.30;99.90;;;;;;5102387;27;20050;-68
2024/01/17 10:30:42;;;;;;;0.30;0.30;;;-0.30;99.90;;;;;;5093784;27;20470;-67
2024/01/17 10:33:09;;;;;;;0.30;0.30;;;-0.20;99.90;;;;;;5095929;28;20040;-67
2024/01/17 10:35:37;;;;;;;0.30;0.30;;;-0.20;99.90;;;;;;5082336;27;20444;-67
2024/01/17 10:38:03;;;;;;;0.77;0.73;;;-0.20;99.90;;;;;;5113874;27;20100;-67
2024/01/17 10:40:29;;;;;;;0.35;0.35;;;-0.20;99.90;;;;;;5087814;28;20039;-67
2024/01/17 10:43:09;;;;;;;0.45;0.35;;;-0.10;99.90;;;;;;5089004;28;20039;-67
2024/01/17 10:45:36;;;;;;;1.38;0.90;;;-0.10;99.90;;;;;;5080151;27;20070;-67
2024/01/17 10:48:02;;;;;;;0.20;0.20;;;-0.10;99.90;;;;;;5096103;28;20089;-68
2024/01/17 10:50:29;;;;;;;0.20;0.20;;;0.00;99.90;;;;;;5100849;27;20050;-68
2024/01/17 10:53:08;;;;;;;2.72;0.65;;;0.00;99.90;;;;;;5092750;28;20057;-67
2024/01/17 10:55:37;;;;;;;1.33;1.23;;;0.00;99.90;;;;;;5102308;27;20046;-67
2024/01/17 10:58:12;;;;;;;0.20;0.20;;;0.10;99.90;;;;;;5094642;27;20043;-67
2024/01/17 11:00:43;;;;;;;0.45;0.45;;;0.10;99.90;;;;;;5078130;28;20036;-67
2024/01/17 11:03:12;;;;;;;0.30;0.30;;;0.10;99.90;;;;;;5074419;27;20040;-68
2024/01/17 11:05:49;;;;;;;1.25;1.15;;;0.10;99.90;;;;;;5093710;28;20054;-67
2024/01/17 11:08:15;;;;;;;0.22;0.22;;;0.10;99.90;;;;;;5083598;28;20047;-68
2024/01/17 11:10:43;;;;;;;0.40;0.40;;;0.20;99.90;;;;;;5080913;28;20394;-67
2024/01/17 11:13:14;;;;;;;0.40;0.40;;;0.20;99.90;;;;;;5094538;27;20039;-68
2024/01/17 11:15:44;;;;;;;0.20;0.20;;;0.20;99.90;;;;;;5095732;28;20389;-67
2024/01/17 11:18:11;;;;;;;0.45;0.45;;;0.30;99.90;;;;;;5106689;28;20031;-68
2024/01/17 11:20:40;;;;;;;0.75;0.75;;;0.40;99.90;;;;;;5091889;28;20031;-67
2024/01/17 11:23:25;;;;;;;0.32;0.32;;;0.40;99.90;;;;;;5092591;28;20039;-68
2024/01/17 11:25:57;;;;;;;0.52;0.52;;;0.50;99.90;;;;;;5107370;27;20035;-68
2024/01/17 11:28:32;;;;;;;1.05;0.52;;;0.50;99.90;;;;;;5100407;28;20035;-67
2024/01/17 11:31:16;;;;;;;0.63;0.30;;;0.50;99.90;;;;;;5077712;28;20036;-67
2024/01/17 11:33:43;;;;;;;0.65;0.32;;;0.50;99.90;;;;;;5089783;28;20440;-68
2024/01/17 11:36:45;;;;;;;0.10;0.10;;;0.60;99.90;;;;;;5092214;27;20572;-68
2024/01/17 11:39:15;;;;;;;0.63;0.63;;;0.60;99.90;;;;;;5079495;27;20035;-68
2024/01/17 11:41:42;;;;;;;1.27;0.38;;;0.60;99.90;;;;;;5078364;28;20039;-67
2024/01/17 11:44:19;;;;;;;0.60;0.57;;;0.60;99.90;;;;;;5083940;28;20047;-67
2024/01/17 11:46:49;;;;;;;0.47;0.47;;;0.60;99.90;;;;;;5103362;28;20047;-67
2024/01/17 11:49:15;;;;;;;1.20;1.05;;;0.60;99.90;;;;;;5080031;28;20044;-67
2024/01/17 11:51:40;;;;;;;2.80;1.15;;;0.60;99.90;;;;;;5088672;28;20043;-67
2024/01/17 11:54:12;;;;;;;0.57;0.57;;;0.60;99.90;;;;;;5090773;28;20036;-67
2024/01/17 11:56:38;;;;;;;1.15;1.02;;;0.60;99.90;;;;;;5076667;28;20394;-67
2024/01/17 11:59:09;;;;;;;2.10;1.98;;;0.60;99.90;;;;;;5092345;28;20111;-67
2024/01/17 12:01:34;;;;;;;1.48;0.73;;;0.50;99.90;;;;;;5088364;27;20034;-67
2024/01/17 12:04:09;;;;;;;0.60;0.60;;;0.50;99.90;;;;;;5102148;28;20047;-67
2024/01/17 12:06:36;;;;;;;0.77;0.70;;;0.50;99.90;;;;;;5085267;28;20085;-67
2024/01/17 12:09:03;;;;;;;0.50;0.50;;;0.40;99.90;;;;;;5088728;28;20039;-67
2024/01/17 12:11:28;;;;;;;1.00;0.98;;;0.40;99.90;;;;;;5094887;28;20533;-68
2024/01/17 12:13:55;;;;;;;0.40;0.40;;;0.40;99.90;;;;;;5100598;28;20122;-67
2024/01/17 12:16:23;;;;;;;0.65;0.57;;;0.50;99.90;;;;;;5099374;28;20086;-67
2024/01/17 12:18:58;;;;;;;2.72;1.10;;;0.50;99.90;;;;;;5092329;28;20486;-68
2024/01/17 12:21:24;;;;;;;0.38;0.35;;;0.50;99.90;;;;;;5099628;27;20043;-68
2024/01/17 12:23:53;;;;;;;0.90;0.90;;;0.50;99.90;;;;;;5095186;28;20040;-67
2024/01/17 12:26:19;;;;;;;0.90;0.63;;;0.60;99.90;;;;;;5090319;27;20115;-67
2024/01/17 12:28:46;;;;;;;0.20;0.20;;;0.60;99.90;;;;;;5102861;28;20445;-67
2024/01/17 12:31:16;;;;;;;0.60;0.60;;;0.60;99.90;;;;;;5101960;27;20043;-67
2024/01/17 12:33:44;;;;;;;4.28;0.70;;;0.60;99.90;;;;;;5100942;28;20035;-68
2024/01/17 12:36:11;;;;;;;0.70;0.45;;;0.60;99.90;;;;;;5099811;28;20027;-67
2024/01/17 12:38:39;;;;;;;0.80;0.63;;;0.60;99.90;;;;;;5102589;28;20051;-67
2024/01/17 12:41:05;;;;;;;0.20;0.20;;;0.60;99.90;;;;;;5106599;28;20035;-67
2024/01/17 12:43:35;;;;;;;0.20;0.20;;;0.60;99.90;;;;;;5103868;28;20046;-67
2024/01/17 12:46:02;;;;;;;2.35;1.92;;;0.60;99.90;;;;;;5091858;28;20035;-67